Dades meteomassalio
Diari Summary for Gener 17, 2018 Units:  English    Metric   Both
« Previous Day
Next Day »
Diari Semanal Mensual Anual Personalitzat
  Maxima: Minima: Mijana:
Temperatura: TemperatureC °F 7.2 °F 9.8 °F
Rosada: DewpointC °F 2.5 °F 4.1 °F
Humitat: Humidity % 52 % 67 %
Velocitat del vent: WindSpeedKMH mph 11.1 mph 31.2 mph
Racha vent: WindSpeedGustKMH mph - -
Vent:- - NW
Pressio: PressurehPa in 1023.2 in -
Pluja: 0.0 in    
Historical Graphs
 
 
Tabular Data for Gener 17, 2018
Time Temperature Dew Point Pressure Wind Wind Speed Wind Gust Humidity Rainfall Rate (Hourly) solar Conditions
TemperatureC °F DewpointC °F PressurehPa in Calm     Humidity % HourlyPrecipMM in SolarRadiationWatts/m^2 W/m2 Conditions
00:26 10.0 °F 5.2 °F 1025.3 in WNW 18.5 mph 18.5 mph 72 % 0.0 in 0.0 W/m2 CLR
00:32 9.4 °F 4.4 °F 1025.3 in NW 14.8 mph 14.8 mph 71 % 0.0 in 0.0 W/m2 CLR
00:39 9.4 °F 4.4 °F 1024.9 in NW 14.8 mph 14.8 mph 71 % 0.0 in 0.0 W/m2 CLR
01:12 10.0 °F 4.6 °F 1024.6 in WNW 24.1 mph 24.1 mph 69 % 0.0 in 0.0 W/m2 CLR
01:49 11.1 °F 5.6 °F 1024.3 in WNW 14.8 mph 14.8 mph 69 % 0.0 in 0.0 W/m2 CLR
02:01 11.1 °F 5.8 °F 1023.9 in WNW 16.7 mph 16.7 mph 70 % 0.0 in 0.0 W/m2 CLR
02:08 11.1 °F 5.8 °F 1023.9 in NW 14.5 mph 14.5 mph 70 % 0.0 in 0.0 W/m2 CLR
02:55 11.1 °F 5.6 °F 1023.6 in NW 31.5 mph 31.5 mph 69 % 0.0 in 0.0 W/m2 CLR
04:17 11.1 °F 5.6 °F 1023.2 in NW 20.4 mph 20.4 mph 69 % 0.0 in 0.0 W/m2 CLR
05:29 12.8 °F 7.0 °F 1023.6 in NW 27.4 mph 27.4 mph 68 % 0.0 in 0.0 W/m2 CLR
06:03 11.7 °F 6.2 °F 1023.6 in NW 24.1 mph 24.1 mph 69 % 0.0 in 0.0 W/m2 CLR
06:15 12.2 °F 6.7 °F 1023.6 in North 37.0 mph 37.0 mph 69 % 0.0 in 0.0 W/m2 CLR
06:54 11.7 °F 6.6 °F 1023.6 in North 33.3 mph 33.3 mph 71 % 0.0 in 0.0 W/m2 CLR
07:00 11.7 °F 6.6 °F 1023.9 in NNW 38.9 mph 38.9 mph 71 % 0.0 in 0.0 W/m2 CLR
07:06 11.7 °F 6.6 °F 1023.9 in North 50.0 mph 50.0 mph 71 % 0.0 in 0.0 W/m2 CLR
07:55 11.7 °F 6.8 °F 1024.3 in NW 40.7 mph 40.7 mph 72 % 0.0 in 0.0 W/m2 CLR
08:17 11.1 °F 6.4 °F 1024.6 in North 42.6 mph 42.6 mph 73 % 0.0 in 0.0 W/m2 OVC
08:36 11.1 °F 6.7 °F 1024.6 in NNW 42.6 mph 42.6 mph 74 % 0.0 in 11.0 W/m2 BKN
08:49 11.1 °F 6.8 °F 1024.9 in North 41.8 mph 41.8 mph 75 % 0.0 in 19.0 W/m2 BKN
08:55 11.1 °F 6.8 °F 1024.9 in NNW 46.3 mph 46.3 mph 75 % 0.0 in 26.0 W/m2 BKN
09:19 11.1 °F 6.8 °F 1024.9 in North 48.1 mph 48.1 mph 75 % 0.0 in 76.0 W/m2 FEW
09:25 11.1 °F 6.7 °F 1024.9 in North 42.6 mph 42.6 mph 74 % 0.0 in 79.0 W/m2 FEW
09:31 11.1 °F 6.7 °F 1025.3 in NNW 42.6 mph 42.6 mph 74 % 0.0 in 109.0 W/m2 CLR
09:47 11.1 °F 6.4 °F 1025.3 in NW 50.0 mph 50.0 mph 73 % 0.0 in 155.0 W/m2 CLR
10:08 11.7 °F 6.6 °F 1025.6 in North 57.4 mph 57.4 mph 71 % 0.0 in 153.0 W/m2 CLR
10:43 11.7 °F 5.9 °F 1026.6 in NW 50.0 mph 50.0 mph 68 % 0.0 in 309.0 W/m2 CLR
11:01 12.2 °F 6.1 °F 1026.6 in NNW 46.3 mph 46.3 mph 66 % 0.0 in 350.0 W/m2 CLR
11:23 12.2 °F 5.6 °F 1027.0 in NNW 35.2 mph 35.2 mph 64 % 0.0 in 388.0 W/m2 CLR
11:29 12.8 °F 5.7 °F 1026.6 in North 50.0 mph 50.0 mph 62 % 0.0 in 396.0 W/m2 CLR
12:04 12.8 °F 4.7 °F 1026.0 in NNW 62.9 mph 62.9 mph 58 % 0.0 in 443.0 W/m2 CLR
12:21 12.8 °F 4.4 °F 1025.6 in NW 77.7 mph 77.7 mph 57 % 0.0 in 455.0 W/m2 CLR
12:52 12.8 °F 4.2 °F 1026.3 in NW 66.6 mph 66.6 mph 56 % 0.0 in 512.0 W/m2 CLR
13:13 13.3 °F 5.2 °F 1025.6 in North 64.8 mph 64.8 mph 58 % 0.0 in 478.0 W/m2 CLR
13:19 13.3 °F 4.7 °F 1025.3 in NNW 75.9 mph 75.9 mph 56 % 0.0 in 476.0 W/m2 CLR
13:24 13.3 °F 4.7 °F 1025.6 in NNW 79.6 mph 79.6 mph 56 % 0.0 in 478.0 W/m2 CLR
13:48 13.3 °F 5.0 °F 1025.6 in NNW 61.1 mph 61.1 mph 57 % 0.0 in 468.0 W/m2 CLR
14:01 13.3 °F 5.0 °F 1025.6 in NW 62.9 mph 62.9 mph 57 % 0.0 in 464.0 W/m2 CLR
14:21 13.3 °F 5.0 °F 1025.3 in NW 50.0 mph 50.0 mph 57 % 0.0 in 445.0 W/m2 CLR
14:28 13.3 °F 4.7 °F 1025.6 in NNW 57.4 mph 57.4 mph 56 % 0.0 in 436.0 W/m2 CLR
14:42 13.3 °F 5.0 °F 1024.9 in North 57.4 mph 57.4 mph 57 % 0.0 in 418.0 W/m2 CLR
14:49 13.3 °F 4.7 °F 1025.3 in North 57.4 mph 57.4 mph 56 % 0.0 in 406.0 W/m2 CLR
14:57 12.8 °F 4.7 °F 1025.6 in North 61.1 mph 61.1 mph 58 % 0.0 in 394.0 W/m2 CLR
15:37 12.8 °F 4.2 °F 1025.6 in NNW 40.7 mph 40.7 mph 56 % 0.0 in 322.0 W/m2 CLR
15:43 12.8 °F 3.7 °F 1026.0 in NW 38.9 mph 38.9 mph 54 % 0.0 in 308.0 W/m2 CLR
15:49 12.8 °F 3.2 °F 1026.0 in NNW 48.1 mph 48.1 mph 52 % 0.0 in 290.0 W/m2 CLR
15:55 12.8 °F 3.7 °F 1026.0 in NNW 53.7 mph 53.7 mph 54 % 0.0 in 276.0 W/m2 CLR
16:01 12.2 °F 3.2 °F 1026.3 in North 56.3 mph 56.3 mph 54 % 0.0 in 260.0 W/m2 CLR
16:12 12.2 °F 3.2 °F 1026.6 in NW 44.4 mph 44.4 mph 54 % 0.0 in 227.0 W/m2 CLR
16:18 12.2 °F 3.4 °F 1027.0 in NW 42.6 mph 42.6 mph 55 % 0.0 in 211.0 W/m2 CLR
16:31 11.7 °F 3.2 °F 1027.0 in NW 50.0 mph 50.0 mph 56 % 0.0 in 176.0 W/m2 CLR
16:46 11.7 °F 3.7 °F 1027.0 in NNW 48.3 mph 48.3 mph 58 % 0.0 in 134.0 W/m2 CLR
16:52 11.7 °F 3.9 °F 1027.3 in NNW 42.6 mph 42.6 mph 59 % 0.0 in 111.0 W/m2 CLR
17:04 11.1 °F 3.6 °F 1027.3 in NW 33.3 mph 33.3 mph 60 % 0.0 in 69.0 W/m2 FEW
17:37 10.6 °F 3.3 °F 1028.0 in NW 31.5 mph 31.5 mph 61 % 0.0 in 16.0 W/m2 BKN
18:22 10.0 °F 3.5 °F 1028.7 in NW 22.2 mph 22.2 mph 64 % 0.0 in 0.0 W/m2 CLR
18:48 9.4 °F 3.4 °F 1028.7 in NW 22.5 mph 22.5 mph 66 % 0.0 in 0.0 W/m2 CLR
18:54 9.4 °F 3.6 °F 1028.7 in NW 30.6 mph 30.6 mph 67 % 0.0 in 0.0 W/m2 CLR
19:01 9.4 °F 3.6 °F 1028.7 in NW 31.5 mph 31.5 mph 67 % 0.0 in 0.0 W/m2 CLR
19:21 9.4 °F 3.6 °F 1028.7 in NNW 27.8 mph 27.8 mph 67 % 0.0 in 0.0 W/m2 CLR
19:38 8.9 °F 3.3 °F 1029.0 in NNW 24.1 mph 24.1 mph 68 % 0.0 in 0.0 W/m2 CLR
19:45 8.9 °F 3.3 °F 1029.0 in NW 14.8 mph 14.8 mph 68 % 0.0 in 0.0 W/m2 CLR
20:15 8.9 °F 3.5 °F 1029.3 in NNW 27.8 mph 27.8 mph 69 % 0.0 in 0.0 W/m2 CLR
20:37 8.9 °F 3.7 °F 1029.7 in NW 29.6 mph 29.6 mph 70 % 0.0 in 0.0 W/m2 CLR
20:42 8.9 °F 3.7 °F 1029.3 in NW 20.4 mph 20.4 mph 70 % 0.0 in 0.0 W/m2 CLR
20:47 8.3 °F 3.4 °F 1029.3 in NW 18.5 mph 18.5 mph 71 % 0.0 in 0.0 W/m2 CLR
20:52 8.3 °F 3.4 °F 1029.3 in WNW 18.5 mph 18.5 mph 71 % 0.0 in 0.0 W/m2 CLR
20:57 8.3 °F 3.4 °F 1029.3 in WSW 11.1 mph 11.1 mph 71 % 0.0 in 0.0 W/m2 CLR
21:03 8.9 °F 3.9 °F 1029.3 in WNW 16.7 mph 16.7 mph 71 % 0.0 in 0.0 W/m2 CLR
21:08 8.3 °F 3.4 °F 1029.3 in WNW 18.5 mph 18.5 mph 71 % 0.0 in 0.0 W/m2 CLR
21:13 8.3 °F 3.2 °F 1029.3 in NW 14.8 mph 14.8 mph 70 % 0.0 in 0.0 W/m2 CLR
21:15 8.3 °F 3.2 °F 1029.3 in WNW 14.8 mph 14.8 mph 70 % 0.0 in 0.0 W/m2 CLR
21:19 7.8 °F 2.7 °F 1029.7 in WNW 16.7 mph 16.7 mph 70 % 0.0 in 0.0 W/m2 CLR
21:25 7.8 °F 2.7 °F 1029.7 in WNW 18.5 mph 18.5 mph 70 % 0.0 in 0.0 W/m2 CLR
21:30 7.8 °F 2.7 °F 1029.7 in WNW 19.3 mph 19.3 mph 70 % 0.0 in 0.0 W/m2 CLR
21:35 7.8 °F 2.7 °F 1029.3 in WNW 19.3 mph 19.3 mph 70 % 0.0 in 0.0 W/m2 CLR
21:36 7.8 °F 2.7 °F 1029.3 in West 16.7 mph 16.7 mph 70 % 0.0 in 0.0 W/m2 CLR
21:41 7.8 °F 2.7 °F 1029.7 in NW 20.4 mph 20.4 mph 70 % 0.0 in 0.0 W/m2 CLR
21:43 7.8 °F 2.7 °F 1029.7 in WNW 16.7 mph 16.7 mph 70 % 0.0 in 0.0 W/m2 CLR
21:46 7.8 °F 2.7 °F 1029.7 in West 14.8 mph 14.8 mph 70 % 0.0 in 0.0 W/m2 CLR
21:51 7.8 °F 2.8 °F 1029.7 in West 11.1 mph 11.1 mph 71 % 0.0 in 0.0 W/m2 CLR
21:56 7.8 °F 3.1 °F 1029.7 in West 19.3 mph 19.3 mph 72 % 0.0 in 0.0 W/m2 CLR
22:01 7.8 °F 3.2 °F 1029.7 in WNW 22.2 mph 22.2 mph 73 % 0.0 in 0.0 W/m2 CLR
22:05 7.2 °F 2.7 °F 1029.7 in WNW 18.5 mph 18.5 mph 73 % 0.0 in 0.0 W/m2 CLR
22:10 7.8 °F 3.2 °F 1029.7 in West 16.1 mph 16.1 mph 73 % 0.0 in 0.0 W/m2 CLR
22:11 7.8 °F 3.2 °F 1029.7 in NW 18.5 mph 18.5 mph 73 % 0.0 in 0.0 W/m2 CLR
22:15 7.8 °F 3.2 °F 1029.7 in WSW 13.0 mph 13.0 mph 73 % 0.0 in 0.0 W/m2 CLR
22:19 7.8 °F 3.2 °F 1029.7 in West 18.5 mph 18.5 mph 73 % 0.0 in 0.0 W/m2 CLR
22:20 7.8 °F 3.2 °F 1029.7 in WNW 18.5 mph 18.5 mph 73 % 0.0 in 0.0 W/m2 CLR
22:21 7.8 °F 3.2 °F 1029.7 in West 24.1 mph 24.1 mph 73 % 0.0 in 0.0 W/m2 CLR
22:22 7.8 °F 3.2 °F 1029.7 in West 27.8 mph 27.8 mph 73 % 0.0 in 0.0 W/m2 CLR
22:26 7.8 °F 3.2 °F 1029.7 in WNW 27.8 mph 27.8 mph 73 % 0.0 in 0.0 W/m2 CLR
22:31 7.8 °F 3.1 °F 1029.7 in WNW 22.5 mph 22.5 mph 72 % 0.0 in 0.0 W/m2 CLR
22:32 7.8 °F 3.1 °F 1029.7 in WNW 25.9 mph 25.9 mph 72 % 0.0 in 0.0 W/m2 CLR
22:34 7.8 °F 3.1 °F 1030.0 in WNW 22.5 mph 22.5 mph 72 % 0.0 in 0.0 W/m2 CLR
22:39 7.8 °F 2.8 °F 1030.0 in West 20.4 mph 20.4 mph 71 % 0.0 in 0.0 W/m2 CLR
22:40 7.8 °F 2.8 °F 1030.0 in WNW 25.7 mph 25.7 mph 71 % 0.0 in 0.0 W/m2 CLR
22:45 7.8 °F 2.8 °F 1030.0 in SW 18.5 mph 18.5 mph 71 % 0.0 in 0.0 W/m2 CLR
22:48 7.8 °F 2.8 °F 1030.0 in West 18.5 mph 18.5 mph 71 % 0.0 in 0.0 W/m2 CLR
22:50 8.3 °F 3.4 °F 1030.0 in West 11.1 mph 11.1 mph 71 % 0.0 in 0.0 W/m2 CLR
22:55 7.8 °F 3.1 °F 1030.0 in WNW 16.7 mph 16.7 mph 72 % 0.0 in 0.0 W/m2 CLR
23:01 7.8 °F 3.1 °F 1030.0 in NW 18.5 mph 18.5 mph 72 % 0.0 in 0.0 W/m2 CLR
23:06 7.8 °F 2.8 °F 1030.0 in WNW 18.5 mph 18.5 mph 71 % 0.0 in 0.0 W/m2 CLR
23:11 7.8 °F 2.8 °F 1030.0 in WNW 24.1 mph 24.1 mph 71 % 0.0 in 0.0 W/m2 CLR
23:16 7.8 °F 2.8 °F 1030.0 in West 18.5 mph 18.5 mph 71 % 0.0 in 0.0 W/m2 CLR
23:21 7.8 °F 2.8 °F 1030.0 in WNW 16.7 mph 16.7 mph 71 % 0.0 in 0.0 W/m2 CLR
23:26 7.2 °F 2.5 °F 1029.7 in NW 20.4 mph 20.4 mph 72 % 0.0 in 0.0 W/m2 CLR
23:31 7.2 °F 2.5 °F 1030.0 in WNW 24.1 mph 24.1 mph 72 % 0.0 in 0.0 W/m2 CLR
23:36 7.8 °F 3.1 °F 1030.0 in West 11.3 mph 11.3 mph 72 % 0.0 in 0.0 W/m2 CLR
23:41 7.8 °F 3.1 °F 1030.0 in NW 16.7 mph 16.7 mph 72 % 0.0 in 0.0 W/m2 CLR
23:46 7.2 °F 2.7 °F 1029.7 in WNW 22.2 mph 22.2 mph 73 % 0.0 in 0.0 W/m2 CLR
23:51 7.8 °F 3.1 °F 1030.0 in West 18.5 mph 18.5 mph 72 % 0.0 in 0.0 W/m2 CLR
23:56 7.8 °F 3.2 °F 1030.0 in WNW 14.8 mph 14.8 mph 73 % 0.0 in 0.0 W/m2 CLR
Lo Temps de Massalio
Compliments of Weather Underground - 768 kb